Terminal Aerodrome Forecast
Issued by NWS Jacksonville, FL

Home | Current Version | Previous Version | Text Only | Print | Product List | Glossary On
Versions: 1 2 3 4 5 6 7 8 9 10 11 12 13 14 15 16 17 18 19 20 21 22 23 24 25 26 27 28 29
000
FTUS42 KJAX 282340
TAFGNV
TAF
KGNV 282340Z 2900/2924 06007KT P6SM SCT045 BKN250
     FM290200 VRB03KT P6SM SCT250
      TEMPO 2909/2912 5SM BR
     FM291400 31005KT P6SM SCT030=

USA.gov is the U.S. government's official web portal to all federal, state and local government web resources and services.